createdAt,value
2024-01-11T00:01:47.646Z,11.17
2024-01-11T00:04:14.383Z,10.93
2024-01-11T00:06:44.488Z,10.00
2024-01-11T00:09:11.058Z,10.73
2024-01-11T00:11:37.663Z,10.73
2024-01-11T00:14:04.299Z,10.80
2024-01-11T00:16:30.942Z,9.90
2024-01-11T00:18:57.610Z,10.27
2024-01-11T00:21:24.205Z,9.90
2024-01-11T00:23:50.889Z,11.10
2024-01-11T00:26:17.487Z,10.17
2024-01-11T00:28:44.099Z,11.77
2024-01-11T00:31:11.418Z,11.03
2024-01-11T00:33:38.144Z,10.63
2024-01-11T00:36:05.079Z,9.97
2024-01-11T00:38:31.811Z,10.10
2024-01-11T00:40:58.479Z,11.00
2024-01-11T00:43:25.047Z,10.50
2024-01-11T00:45:51.554Z,9.73
2024-01-11T00:48:18.160Z,10.00
2024-01-11T00:50:44.888Z,9.53
2024-01-11T00:53:12.329Z,9.93
2024-01-11T00:55:39.006Z,10.33
2024-01-11T00:58:05.518Z,10.37
2024-01-11T01:00:32.086Z,11.00
2024-01-11T01:02:58.634Z,10.43
2024-01-11T01:05:25.341Z,10.97
2024-01-11T01:07:52.084Z,10.53
2024-01-11T01:10:18.647Z,10.33
2024-01-11T01:12:45.191Z,10.23
2024-01-11T01:15:11.829Z,10.50
2024-01-11T01:17:38.549Z,10.33
2024-01-11T01:20:05.821Z,10.40
2024-01-11T01:22:32.409Z,9.67
2024-01-11T01:24:58.960Z,9.73
2024-01-11T01:27:25.658Z,10.20
2024-01-11T01:29:52.217Z,10.60
2024-01-11T01:32:18.997Z,11.47
2024-01-11T01:34:47.871Z,10.40
2024-01-11T01:37:15.231Z,10.30
2024-01-11T01:39:42.217Z,10.80
2024-01-11T01:42:10.844Z,10.20
2024-01-11T01:44:37.697Z,10.83
2024-01-11T01:47:04.624Z,10.47
2024-01-11T01:49:31.276Z,10.57
2024-01-11T01:51:57.804Z,10.97
2024-01-11T01:54:24.306Z,10.50
2024-01-11T01:56:50.890Z,10.70
2024-01-11T01:59:17.554Z,10.87
2024-01-11T02:01:44.149Z,10.37
2024-01-11T02:04:10.748Z,10.43
2024-01-11T02:06:37.486Z,10.67
2024-01-11T02:09:07.168Z,10.67
2024-01-11T02:11:33.814Z,11.17
2024-01-11T02:14:00.573Z,10.50
2024-01-11T02:16:27.481Z,10.80
2024-01-11T02:18:54.197Z,10.63
2024-01-11T02:21:20.755Z,11.63
2024-01-11T02:24:13.611Z,11.13
2024-01-11T02:26:59.770Z,11.00
2024-01-11T02:29:26.775Z,10.40
2024-01-11T02:31:53.418Z,10.23
2024-01-11T02:34:20.067Z,10.23
2024-01-11T02:36:46.638Z,10.97
2024-01-11T02:39:13.303Z,11.10
2024-01-11T02:41:39.866Z,11.60
2024-01-11T02:44:06.427Z,11.00
2024-01-11T02:46:33.129Z,10.87
2024-01-11T02:48:59.730Z,11.03
2024-01-11T02:51:26.349Z,11.03
2024-01-11T02:53:52.875Z,11.13
2024-01-11T02:56:19.485Z,11.33
2024-01-11T02:58:46.024Z,11.40
2024-01-11T03:01:12.582Z,11.40
2024-01-11T03:03:39.239Z,11.37
2024-01-11T03:06:05.879Z,10.73
2024-01-11T03:08:32.602Z,11.10
2024-01-11T03:10:59.231Z,11.23
2024-01-11T03:13:25.752Z,11.37
2024-01-11T03:15:52.275Z,11.07
2024-01-11T03:18:18.958Z,11.50
2024-01-11T03:20:45.718Z,10.57
2024-01-11T03:23:12.351Z,11.50
2024-01-11T03:25:38.908Z,11.13
2024-01-11T03:28:05.539Z,11.77
2024-01-11T03:30:32.116Z,10.70
2024-01-11T03:32:58.779Z,11.27
2024-01-11T03:35:25.443Z,10.63
2024-01-11T03:37:52.652Z,11.03
2024-01-11T03:40:19.186Z,11.07
2024-01-11T03:42:45.722Z,10.87
2024-01-11T03:45:12.383Z,11.67
2024-01-11T03:47:39.136Z,11.80
2024-01-11T03:50:06.353Z,11.47
2024-01-11T03:52:32.908Z,10.93
2024-01-11T03:54:59.472Z,10.77
2024-01-11T03:57:26.353Z,11.70
2024-01-11T03:59:52.885Z,10.67
2024-01-11T04:02:19.468Z,11.30
2024-01-11T04:04:45.971Z,11.03
2024-01-11T04:07:12.642Z,10.93
2024-01-11T04:09:39.694Z,11.43
2024-01-11T04:12:07.098Z,11.00
2024-01-11T04:14:33.765Z,11.67
2024-01-11T04:17:00.350Z,11.33
2024-01-11T04:19:27.042Z,11.13
2024-01-11T04:21:53.708Z,10.80
2024-01-11T04:24:20.217Z,11.27
2024-01-11T04:26:46.765Z,11.47
2024-01-11T04:29:13.335Z,11.80
2024-01-11T04:31:39.905Z,12.03
2024-01-11T04:34:06.492Z,11.93
2024-01-11T04:36:33.122Z,11.40
2024-01-11T04:38:59.639Z,11.93
2024-01-11T04:41:26.296Z,11.50
2024-01-11T04:43:52.940Z,11.40
2024-01-11T04:46:21.298Z,11.53
2024-01-11T04:48:48.192Z,11.50
2024-01-11T04:51:14.959Z,11.43
2024-01-11T04:53:41.753Z,11.53
2024-01-11T04:56:09.026Z,11.20
2024-01-11T04:58:41.169Z,11.67
2024-01-11T05:01:07.781Z,11.93
2024-01-11T05:03:34.516Z,10.97
2024-01-11T05:06:01.248Z,11.57
2024-01-11T05:08:29.060Z,11.73
2024-01-11T05:10:55.961Z,11.20
2024-01-11T05:13:22.794Z,10.97
2024-01-11T05:15:49.537Z,11.33
2024-01-11T05:18:16.137Z,11.13
2024-01-11T05:20:42.765Z,11.47
2024-01-11T05:23:09.575Z,10.73
2024-01-11T05:25:36.263Z,11.37
2024-01-11T05:28:03.183Z,12.00
2024-01-11T05:30:34.138Z,11.83
2024-01-11T05:33:00.904Z,13.27
2024-01-11T05:35:28.796Z,14.60
2024-01-11T05:37:58.451Z,14.37
2024-01-11T05:40:25.161Z,13.57
2024-01-11T05:42:51.697Z,15.10
2024-01-11T05:45:20.881Z,15.30
2024-01-11T05:47:51.027Z,15.10
2024-01-11T05:50:18.003Z,14.17
2024-01-11T05:52:44.507Z,14.27
2024-01-11T05:55:11.061Z,14.50
2024-01-11T05:57:37.766Z,14.03
2024-01-11T06:00:05.870Z,14.43
2024-01-11T06:02:32.967Z,14.37
2024-01-11T06:04:59.686Z,14.20
2024-01-11T06:07:26.278Z,13.97
2024-01-11T06:09:52.851Z,15.03
2024-01-11T06:12:19.430Z,13.70
2024-01-11T06:14:46.032Z,20.43
2024-01-11T06:17:12.858Z,22.57
2024-01-11T06:19:39.752Z,26.87
2024-01-11T06:22:06.784Z,28.90
2024-01-11T06:24:33.462Z,30.53
2024-01-11T06:27:00.069Z,32.40
2024-01-11T06:29:26.646Z,32.43
2024-01-11T06:31:53.195Z,32.83
2024-01-11T06:34:19.740Z,32.10
2024-01-11T06:36:46.279Z,29.97
2024-01-11T06:39:13.775Z,30.43
2024-01-11T06:41:40.509Z,28.53
2024-01-11T06:44:07.155Z,28.80
2024-01-11T06:46:33.743Z,26.40
2024-01-11T06:49:00.455Z,27.63
2024-01-11T06:51:27.112Z,26.63
2024-01-11T06:53:53.648Z,25.97
2024-01-11T06:56:23.638Z,25.70
2024-01-11T06:58:50.817Z,25.93
2024-01-11T07:01:17.387Z,24.97
2024-01-11T07:03:53.000Z,26.00
2024-01-11T07:06:19.700Z,23.77
2024-01-11T07:08:46.620Z,23.73
2024-01-11T07:11:13.298Z,22.97
2024-01-11T07:13:39.853Z,23.07
2024-01-11T07:16:06.852Z,22.77
2024-01-11T07:18:33.542Z,28.77
2024-01-11T07:21:00.556Z,30.87
2024-01-11T07:23:27.907Z,30.97
2024-01-11T07:25:54.514Z,33.80
2024-01-11T07:28:26.036Z,31.83
2024-01-11T07:30:55.525Z,30.97
2024-01-11T07:33:22.404Z,29.87
2024-01-11T07:35:49.162Z,28.70
2024-01-11T07:38:15.783Z,29.47
2024-01-11T07:40:43.755Z,27.57
2024-01-11T07:43:10.807Z,27.67
2024-01-11T07:45:37.368Z,26.67
2024-01-11T07:48:04.964Z,26.90
2024-01-11T07:50:31.918Z,24.80
2024-01-11T07:52:58.533Z,25.60
2024-01-11T07:55:25.378Z,26.73
2024-01-11T07:57:52.011Z,25.97
2024-01-11T08:00:18.637Z,25.30
2024-01-11T08:02:45.296Z,26.10
2024-01-11T08:05:12.384Z,25.03
2024-01-11T08:07:39.022Z,24.23
2024-01-11T08:10:07.728Z,23.27
2024-01-11T08:12:34.402Z,23.67
2024-01-11T08:15:01.014Z,22.63
2024-01-11T08:17:27.621Z,22.33
2024-01-11T08:19:54.209Z,22.63
2024-01-11T08:22:25.810Z,22.60
2024-01-11T08:24:53.776Z,22.57
2024-01-11T08:27:20.467Z,22.17
2024-01-11T08:29:47.961Z,22.50
2024-01-11T08:32:23.875Z,20.80
2024-01-11T08:35:00.842Z,22.27
2024-01-11T08:37:27.530Z,22.30
2024-01-11T08:39:54.084Z,21.83
2024-01-11T08:42:20.647Z,21.60
2024-01-11T08:44:48.582Z,21.07
2024-01-11T08:47:16.096Z,21.67
2024-01-11T08:49:42.829Z,20.37
2024-01-11T08:52:09.464Z,20.50
2024-01-11T08:54:36.116Z,19.90
2024-01-11T08:57:02.671Z,20.43
2024-01-11T08:59:29.317Z,20.80
2024-01-11T09:02:02.658Z,20.67
2024-01-11T09:04:37.587Z,19.13
2024-01-11T09:07:04.576Z,19.73
2024-01-11T09:09:32.959Z,19.17
2024-01-11T09:12:01.237Z,20.77
2024-01-11T09:14:27.854Z,20.10
2024-01-11T09:16:54.514Z,20.30
2024-01-11T09:19:21.272Z,19.57
2024-01-11T09:21:47.860Z,19.43
2024-01-11T09:24:14.553Z,19.23
2024-01-11T09:26:41.194Z,19.90
2024-01-11T09:29:07.854Z,19.47
2024-01-11T09:31:34.474Z,18.53
2024-01-11T09:34:01.280Z,20.17
2024-01-11T09:36:27.885Z,18.37
2024-01-11T09:38:54.538Z,18.23
2024-01-11T09:41:21.138Z,18.47
2024-01-11T09:43:47.685Z,18.43
2024-01-11T09:46:14.360Z,17.47
2024-01-11T09:48:41.877Z,18.43
2024-01-11T09:51:11.019Z,17.50
2024-01-11T09:53:39.706Z,18.27
2024-01-11T09:56:12.711Z,18.77
2024-01-11T09:58:40.046Z,18.27
2024-01-11T10:01:11.616Z,17.53
2024-01-11T10:03:38.285Z,17.70
2024-01-11T10:06:05.406Z,17.80
2024-01-11T10:08:32.017Z,18.43
2024-01-11T10:10:58.605Z,17.10
2024-01-11T10:13:29.699Z,20.83
2024-01-11T10:16:09.212Z,21.60
2024-01-11T10:18:35.981Z,21.90
2024-01-11T10:21:03.756Z,20.33
2024-01-11T10:23:30.908Z,20.23
2024-01-11T10:25:58.527Z,19.90
2024-01-11T10:28:28.042Z,21.03
2024-01-11T10:30:55.516Z,19.70
2024-01-11T10:33:22.913Z,18.87
2024-01-11T10:35:50.881Z,18.67
2024-01-11T10:38:17.607Z,18.80
2024-01-11T10:40:44.232Z,18.37
2024-01-11T10:43:14.529Z,18.23
2024-01-11T10:45:41.162Z,17.47
2024-01-11T10:48:09.198Z,17.63
2024-01-11T10:50:37.082Z,16.30
2024-01-11T10:53:15.969Z,17.53
2024-01-11T10:55:43.292Z,17.30
2024-01-11T10:58:09.898Z,17.30
2024-01-11T11:00:36.771Z,16.80
2024-01-11T11:03:04.152Z,16.43
2024-01-11T11:05:31.804Z,18.07
2024-01-11T11:07:59.021Z,17.43
2024-01-11T11:10:27.089Z,16.70
2024-01-11T11:12:53.657Z,17.47
2024-01-11T11:15:21.053Z,18.27
2024-01-11T11:17:47.730Z,18.00
2024-01-11T11:20:14.738Z,17.40
2024-01-11T11:22:41.877Z,16.67
2024-01-11T11:25:14.385Z,17.53
2024-01-11T11:27:40.942Z,16.37
2024-01-11T11:30:08.053Z,17.13
2024-01-11T11:32:44.299Z,23.90
2024-01-11T11:35:11.039Z,27.33
2024-01-11T11:37:38.759Z,28.17
2024-01-11T11:40:07.137Z,29.40
2024-01-11T11:42:35.432Z,29.50
2024-01-11T11:45:02.062Z,31.50
2024-01-11T11:47:35.206Z,32.13
2024-01-11T11:50:08.789Z,30.63
2024-01-11T11:52:36.481Z,30.50
2024-01-11T11:55:03.103Z,28.87
2024-01-11T11:57:29.837Z,28.70
2024-01-11T11:59:59.752Z,26.87
2024-01-11T12:02:27.015Z,27.50
2024-01-11T12:04:54.592Z,25.57
2024-01-11T12:07:22.168Z,25.33
2024-01-11T12:09:48.763Z,25.10
2024-01-11T12:12:16.650Z,25.67
2024-01-11T12:14:43.917Z,24.53
2024-01-11T12:17:10.615Z,25.70
2024-01-11T12:19:37.333Z,30.63
2024-01-11T12:22:04.065Z,32.60
2024-01-11T12:24:31.716Z,33.30
2024-01-11T12:27:01.474Z,33.87
2024-01-11T12:29:40.152Z,35.63
2024-01-11T12:32:12.978Z,35.37
2024-01-11T12:34:39.684Z,33.87
2024-01-11T12:37:06.919Z,32.37
2024-01-11T12:39:33.511Z,33.27
2024-01-11T12:42:00.057Z,30.50
2024-01-11T12:44:26.603Z,33.10
2024-01-11T12:46:53.847Z,36.17
2024-01-11T12:49:21.234Z,37.43
2024-01-11T12:51:47.963Z,35.57
2024-01-11T12:54:15.631Z,36.53
2024-01-11T12:56:45.813Z,37.60
2024-01-11T12:59:13.414Z,36.87
2024-01-11T13:01:40.954Z,37.80
2024-01-11T13:04:11.494Z,35.70
2024-01-11T13:06:38.200Z,35.20
2024-01-11T13:09:05.300Z,34.83
2024-01-11T13:11:31.989Z,35.37
2024-01-11T13:14:02.191Z,33.53
2024-01-11T13:16:28.819Z,33.90
2024-01-11T13:18:55.458Z,32.87
2024-01-11T13:21:22.421Z,32.70
2024-01-11T13:23:49.337Z,33.00
2024-01-11T13:26:16.344Z,33.07
2024-01-11T13:28:43.038Z,30.83
2024-01-11T13:31:11.185Z,31.10
2024-01-11T13:33:38.174Z,31.23
2024-01-11T13:36:05.320Z,30.63
2024-01-11T13:38:31.950Z,30.93
2024-01-11T13:40:58.542Z,30.53
2024-01-11T13:43:25.094Z,29.17
2024-01-11T13:45:51.736Z,28.90
2024-01-11T13:48:18.378Z,27.83
2024-01-11T13:50:45.177Z,27.47
2024-01-11T13:53:11.928Z,26.77
2024-01-11T13:55:40.164Z,26.97
2024-01-11T13:58:07.350Z,27.20
2024-01-11T14:00:34.059Z,25.97
2024-01-11T14:03:00.927Z,26.67
2024-01-11T14:05:27.658Z,28.93
2024-01-11T14:07:59.739Z,29.10
2024-01-11T14:10:28.048Z,27.57
2024-01-11T14:12:55.105Z,28.37
2024-01-11T14:15:21.736Z,28.10
2024-01-11T14:17:49.212Z,28.70
2024-01-11T14:20:16.488Z,27.53
2024-01-11T14:22:48.152Z,27.67
2024-01-11T14:25:14.690Z,27.43
2024-01-11T14:27:42.354Z,25.80
2024-01-11T14:30:10.643Z,26.00
2024-01-11T14:32:38.335Z,24.97
2024-01-11T14:35:06.889Z,25.10
2024-01-11T14:37:38.493Z,25.00
2024-01-11T14:40:08.415Z,27.57
2024-01-11T14:42:34.960Z,28.57
2024-01-11T14:45:01.641Z,27.57
2024-01-11T14:47:28.519Z,27.13
2024-01-11T14:49:55.505Z,26.43
2024-01-11T14:52:22.148Z,25.83
2024-01-11T14:54:49.021Z,25.13
2024-01-11T14:57:16.172Z,26.03
2024-01-11T14:59:43.721Z,25.00
2024-01-11T15:02:10.909Z,26.00
2024-01-11T15:04:37.629Z,24.33
2024-01-11T15:07:04.567Z,24.33
2024-01-11T15:09:31.374Z,24.20
2024-01-11T15:11:58.152Z,22.93
2024-01-11T15:14:24.801Z,24.23
2024-01-11T15:16:51.437Z,22.80
2024-01-11T15:19:18.212Z,22.23
2024-01-11T15:21:49.239Z,22.67
2024-01-11T15:24:20.324Z,22.30
2024-01-11T15:26:47.929Z,21.10
2024-01-11T15:29:15.743Z,21.27
2024-01-11T15:31:46.025Z,20.97
2024-01-11T15:34:13.881Z,21.27
2024-01-11T15:36:41.328Z,21.33
2024-01-11T15:39:20.316Z,19.57
2024-01-11T15:41:55.279Z,20.37
2024-01-11T15:44:23.420Z,20.03
2024-01-11T15:46:50.188Z,20.03
2024-01-11T15:49:16.720Z,20.20
2024-01-11T15:51:43.347Z,19.53
2024-01-11T15:54:09.881Z,19.70
2024-01-11T15:56:36.456Z,19.53
2024-01-11T15:59:04.649Z,19.13
2024-01-11T16:01:34.034Z,19.17
2024-01-11T16:04:01.257Z,18.97
2024-01-11T16:06:28.063Z,18.90
2024-01-11T16:08:54.766Z,18.07
2024-01-11T16:11:22.540Z,18.63
2024-01-11T16:13:50.419Z,18.43
2024-01-11T16:16:17.034Z,18.67
2024-01-11T16:18:44.009Z,19.30
2024-01-11T16:21:10.762Z,17.80
2024-01-11T16:23:37.357Z,17.93
2024-01-11T16:26:05.060Z,17.53
2024-01-11T16:28:31.616Z,18.40
2024-01-11T16:30:58.282Z,16.67
2024-01-11T16:33:28.659Z,17.87
2024-01-11T16:35:59.042Z,17.57
2024-01-11T16:38:26.453Z,17.40
2024-01-11T16:40:55.352Z,17.03
2024-01-11T16:43:22.651Z,17.40
2024-01-11T16:45:50.199Z,15.80
2024-01-11T16:48:18.475Z,16.77
2024-01-11T16:50:45.993Z,16.70
2024-01-11T16:53:13.174Z,17.10
2024-01-11T16:55:42.048Z,16.20
2024-01-11T16:58:09.787Z,16.77
2024-01-11T17:00:37.445Z,17.00
2024-01-11T17:03:05.020Z,16.07
2024-01-11T17:05:31.905Z,17.53
2024-01-11T17:07:58.637Z,15.30
2024-01-11T17:10:25.353Z,16.23
2024-01-11T17:12:51.960Z,16.10
2024-01-11T17:15:18.728Z,15.57
2024-01-11T17:17:45.439Z,16.03
2024-01-11T17:20:14.534Z,17.60
2024-01-11T17:22:41.221Z,16.73
2024-01-11T17:25:08.130Z,15.87
2024-01-11T17:27:34.806Z,16.13
2024-01-11T17:30:01.504Z,15.97
2024-01-11T17:32:28.519Z,16.77
2024-01-11T17:34:56.921Z,15.97
2024-01-11T17:37:23.678Z,14.93
2024-01-11T17:39:50.251Z,15.73
2024-01-11T17:42:17.051Z,16.10
2024-01-11T17:44:44.294Z,15.50
2024-01-11T17:47:11.038Z,16.83
2024-01-11T17:49:42.684Z,16.47
2024-01-11T17:52:09.721Z,16.30
2024-01-11T17:54:36.239Z,16.60
2024-01-11T17:57:02.861Z,15.40
2024-01-11T17:59:29.427Z,14.80
2024-01-11T18:01:59.091Z,16.43
2024-01-11T18:04:25.819Z,15.63
2024-01-11T18:06:52.565Z,15.23
2024-01-11T18:09:19.152Z,15.23
2024-01-11T18:11:46.175Z,16.20
2024-01-11T18:14:13.206Z,15.80
2024-01-11T18:16:40.025Z,15.97
2024-01-11T18:19:08.778Z,16.40
2024-01-11T18:21:35.611Z,16.27
2024-01-11T18:24:02.286Z,15.47
2024-01-11T18:26:28.957Z,19.93
2024-01-11T18:28:55.967Z,29.07
2024-01-11T18:31:23.584Z,31.20
2024-01-11T18:33:52.893Z,28.90
2024-01-11T18:36:23.557Z,27.80
2024-01-11T18:38:50.284Z,27.20
2024-01-11T18:41:18.094Z,33.47
2024-01-11T18:43:44.684Z,36.73
2024-01-11T18:46:11.266Z,38.13
2024-01-11T18:48:38.787Z,37.30
2024-01-11T18:51:07.873Z,36.33
2024-01-11T18:53:34.649Z,35.70
2024-01-11T18:56:01.255Z,35.63
2024-01-11T18:58:28.477Z,35.30
2024-01-11T19:00:55.614Z,35.00
2024-01-11T19:03:22.996Z,35.50
2024-01-11T19:05:49.998Z,33.13
2024-01-11T19:08:17.286Z,34.90
2024-01-11T19:10:43.881Z,31.77
2024-01-11T19:13:10.469Z,32.90
2024-01-11T19:15:37.479Z,31.87
2024-01-11T19:18:04.921Z,29.07
2024-01-11T19:20:31.755Z,29.97
2024-01-11T19:22:59.913Z,30.07
2024-01-11T19:25:26.721Z,28.83
2024-01-11T19:27:56.080Z,28.53
2024-01-11T19:30:22.960Z,28.33
2024-01-11T19:32:49.811Z,28.23
2024-01-11T19:35:16.622Z,28.57
2024-01-11T19:37:43.231Z,27.63
2024-01-11T19:40:09.909Z,27.30
2024-01-11T19:42:36.519Z,26.17
2024-01-11T19:45:03.370Z,27.53
2024-01-11T19:47:30.282Z,26.57
2024-01-11T19:49:57.632Z,26.80
2024-01-11T19:52:24.170Z,25.40
2024-01-11T19:54:50.784Z,25.00
2024-01-11T19:57:17.376Z,23.47
2024-01-11T19:59:44.086Z,23.67
2024-01-11T20:02:11.972Z,24.43
2024-01-11T20:04:38.743Z,24.87
2024-01-11T20:07:05.641Z,23.93
2024-01-11T20:09:33.420Z,23.20
2024-01-11T20:12:00.045Z,23.17
2024-01-11T20:14:28.221Z,23.53
2024-01-11T20:16:54.980Z,22.60
2024-01-11T20:19:21.685Z,22.70
2024-01-11T20:21:48.363Z,22.40
2024-01-11T20:24:14.912Z,23.73
2024-01-11T20:26:41.640Z,22.53
2024-01-11T20:29:08.226Z,20.43
2024-01-11T20:31:34.811Z,21.43
2024-01-11T20:34:03.014Z,21.97
2024-01-11T20:36:30.468Z,20.63
2024-01-11T20:38:57.210Z,20.97
2024-01-11T20:41:24.602Z,21.90
2024-01-11T20:43:51.338Z,21.17
2024-01-11T20:46:21.929Z,19.90
2024-01-11T20:48:48.812Z,20.33
2024-01-11T20:51:18.870Z,20.67
2024-01-11T20:53:49.045Z,19.73
2024-01-11T20:56:15.883Z,21.50
2024-01-11T20:58:45.418Z,20.20
2024-01-11T21:01:12.658Z,18.93
2024-01-11T21:03:39.378Z,19.63
2024-01-11T21:06:06.352Z,18.77
2024-01-11T21:08:33.560Z,19.70
2024-01-11T21:11:00.170Z,18.77
2024-01-11T21:13:27.511Z,20.30
2024-01-11T21:15:54.625Z,18.70
2024-01-11T21:18:21.548Z,18.37
2024-01-11T21:20:48.545Z,19.43
2024-01-11T21:23:15.288Z,18.30
2024-01-11T21:25:42.047Z,18.93
2024-01-11T21:28:09.201Z,17.53
2024-01-11T21:30:35.776Z,18.73
2024-01-11T21:33:02.443Z,17.83
2024-01-11T21:35:29.220Z,18.00
2024-01-11T21:37:55.888Z,18.47
2024-01-11T21:40:22.548Z,18.60
2024-01-11T21:42:49.139Z,18.23
2024-01-11T21:45:15.832Z,17.70
2024-01-11T21:47:42.570Z,18.27
2024-01-11T21:50:10.667Z,18.87
2024-01-11T21:52:37.574Z,17.13
2024-01-11T21:55:04.395Z,18.13
2024-01-11T21:57:31.061Z,18.20
2024-01-11T21:59:57.672Z,17.53
2024-01-11T22:02:25.033Z,18.03
2024-01-11T22:04:51.656Z,18.30
2024-01-11T22:07:18.735Z,17.00
2024-01-11T22:09:45.659Z,17.27
2024-01-11T22:12:12.274Z,17.73
2024-01-11T22:14:40.247Z,16.87
2024-01-11T22:17:08.005Z,17.50
2024-01-11T22:19:34.714Z,16.57
2024-01-11T22:22:04.169Z,16.97
2024-01-11T22:24:30.783Z,17.67
2024-01-11T22:26:57.396Z,17.17
2024-01-11T22:29:24.032Z,16.87
2024-01-11T22:31:50.613Z,15.70
2024-01-11T22:34:17.218Z,16.73
2024-01-11T22:36:47.364Z,17.13
2024-01-11T22:39:13.979Z,16.33
2024-01-11T22:41:40.738Z,17.63
2024-01-11T22:44:07.453Z,15.73
2024-01-11T22:46:34.312Z,16.83
2024-01-11T22:49:05.325Z,16.53
2024-01-11T22:51:32.146Z,16.03
2024-01-11T22:53:59.262Z,16.27
2024-01-11T22:56:26.056Z,15.67
2024-01-11T22:58:52.674Z,16.70
2024-01-11T23:01:19.366Z,16.67
2024-01-11T23:03:46.047Z,16.93
2024-01-11T23:06:12.739Z,16.13
2024-01-11T23:08:39.383Z,15.73
2024-01-11T23:11:05.909Z,16.63
2024-01-11T23:13:32.464Z,16.37
2024-01-11T23:15:59.040Z,16.00
2024-01-11T23:18:25.724Z,16.83
2024-01-11T23:20:52.441Z,16.30
2024-01-11T23:23:19.147Z,16.27
2024-01-11T23:25:45.774Z,14.90
2024-01-11T23:28:12.662Z,15.63
2024-01-11T23:30:39.314Z,15.47
2024-01-11T23:33:06.144Z,15.77
2024-01-11T23:35:32.787Z,15.80
2024-01-11T23:37:59.347Z,16.00
2024-01-11T23:40:25.838Z,15.57
2024-01-11T23:42:53.375Z,15.93
2024-01-11T23:45:20.129Z,15.83
2024-01-11T23:47:46.802Z,16.57
2024-01-11T23:50:13.567Z,17.20
2024-01-11T23:52:40.194Z,16.03
2024-01-11T23:55:07.016Z,15.47
2024-01-11T23:57:33.563Z,16.13
